Hlavní strana
METAR-TAF:

METAR-TAF

Letiště :

Ropná věž

Snorre B, Norsko

zeměpisná šířka: 61-32N, zeměpisná délka: 2-12E, výška: 90 m

Aktuální stav počasí

Zpráva byla vytvořena před 30 minutami, v 16:20 UTC
Jihojihozápadní vítr 24 kt
Teplota 8°C
Vlhkost vzduchu 76%
Tlak 1027 hPa
Viditelnost 10 km a více

METAR: ENQR 221620Z AUTO 20024KT 9999NDV BKN017/// 08/04 Q1027 W///S5

Čas: 17:50 (16:50 UTC)


TAF: chybějící

Stav a předpovědi počasí z více než 4 000 letišť (zprávy METAR a TAF).

Červené a žluté tečky na mapě představují dostupné meteorologické stanice.

Když kurzor umístíte na tečku, zobrazí se název stanice.

Pak kliknutím zobrazíte stav a předpověď počasí.

Chcete-li změnit mapu, kliknutím na zelené tlačítko se znaménkem +mapu přiblížíte, kliknutím na zelené tlačítko se znaménkem – mapu oddálíte a kliknutím na zelené šipky přejdete na sousední mapy.


METAR-TAF: